sensor_id;sensor_type;location;lat;lon;timestamp;P1;durP1;ratioP1;P2;durP2;ratioP2
64816;SDS011;69411;45.656;11.740;2024-02-21T00:01:03;53.55;;;28.83;;
64816;SDS011;69411;45.656;11.740;2024-02-21T00:03:30;50.10;;;26.77;;
64816;SDS011;69411;45.656;11.740;2024-02-21T00:05:56;46.47;;;24.75;;
64816;SDS011;69411;45.656;11.740;2024-02-21T00:08:22;43.97;;;24.67;;
64816;SDS011;69411;45.656;11.740;2024-02-21T00:10:48;46.97;;;25.00;;
64816;SDS011;69411;45.656;11.740;2024-02-21T00:13:14;41.78;;;24.42;;
64816;SDS011;69411;45.656;11.740;2024-02-21T00:15:40;39.75;;;22.33;;
64816;SDS011;69411;45.656;11.740;2024-02-21T00:18:06;41.65;;;23.00;;
64816;SDS011;69411;45.656;11.740;2024-02-21T00:20:32;37.83;;;21.63;;
64816;SDS011;69411;45.656;11.740;2024-02-21T00:22:58;36.90;;;21.27;;
64816;SDS011;69411;45.656;11.740;2024-02-21T00:25:24;38.30;;;20.02;;
64816;SDS011;69411;45.656;11.740;2024-02-21T00:27:50;35.20;;;19.23;;
64816;SDS011;69411;45.656;11.740;2024-02-21T00:30:16;36.30;;;20.00;;
64816;SDS011;69411;45.656;11.740;2024-02-21T00:32:42;35.50;;;19.52;;
64816;SDS011;69411;45.656;11.740;2024-02-21T00:35:08;35.45;;;18.60;;
64816;SDS011;69411;45.656;11.740;2024-02-21T00:37:34;33.70;;;19.13;;
64816;SDS011;69411;45.656;11.740;2024-02-21T00:40:00;33.92;;;18.23;;
64816;SDS011;69411;45.656;11.740;2024-02-21T00:42:25;35.03;;;18.75;;
64816;SDS011;69411;45.656;11.740;2024-02-21T00:44:52;32.45;;;17.48;;
64816;SDS011;69411;45.656;11.740;2024-02-21T00:47:17;29.30;;;17.48;;
64816;SDS011;69411;45.656;11.740;2024-02-21T00:49:43;29.10;;;16.27;;
64816;SDS011;69411;45.656;11.740;2024-02-21T00:52:09;31.13;;;16.38;;
64816;SDS011;69411;45.656;11.740;2024-02-21T00:54:35;30.55;;;16.52;;
64816;SDS011;69411;45.656;11.740;2024-02-21T00:57:01;29.67;;;15.55;;
64816;SDS011;69411;45.656;11.740;2024-02-21T00:59:27;28.63;;;15.15;;
64816;SDS011;69411;45.656;11.740;2024-02-21T01:01:53;25.92;;;14.98;;
64816;SDS011;69411;45.656;11.740;2024-02-21T01:04:19;29.92;;;16.08;;
64816;SDS011;69411;45.656;11.740;2024-02-21T01:06:45;28.60;;;14.55;;
64816;SDS011;69411;45.656;11.740;2024-02-21T01:09:11;27.83;;;15.43;;
64816;SDS011;69411;45.656;11.740;2024-02-21T01:11:37;24.38;;;13.43;;
64816;SDS011;69411;45.656;11.740;2024-02-21T01:14:03;31.40;;;15.15;;
64816;SDS011;69411;45.656;11.740;2024-02-21T01:16:29;23.55;;;13.20;;
64816;SDS011;69411;45.656;11.740;2024-02-21T01:18:55;23.70;;;14.27;;
64816;SDS011;69411;45.656;11.740;2024-02-21T01:21:20;27.23;;;13.90;;
64816;SDS011;69411;45.656;11.740;2024-02-21T01:23:46;25.33;;;13.73;;
64816;SDS011;69411;45.656;11.740;2024-02-21T01:26:12;27.15;;;14.30;;
64816;SDS011;69411;45.656;11.740;2024-02-21T01:28:40;25.27;;;14.02;;
64816;SDS011;69411;45.656;11.740;2024-02-21T01:31:07;24.85;;;13.85;;
64816;SDS011;69411;45.656;11.740;2024-02-21T01:33:33;22.60;;;13.50;;
64816;SDS011;69411;45.656;11.740;2024-02-21T01:36:04;20.73;;;11.57;;
64816;SDS011;69411;45.656;11.740;2024-02-21T01:38:33;26.83;;;12.90;;
64816;SDS011;69411;45.656;11.740;2024-02-21T01:40:59;22.35;;;13.52;;
64816;SDS011;69411;45.656;11.740;2024-02-21T01:43:26;23.63;;;12.88;;
64816;SDS011;69411;45.656;11.740;2024-02-21T01:45:53;23.52;;;11.88;;
64816;SDS011;69411;45.656;11.740;2024-02-21T01:48:21;25.67;;;13.00;;
64816;SDS011;69411;45.656;11.740;2024-02-21T01:50:48;21.55;;;11.90;;
64816;SDS011;69411;45.656;11.740;2024-02-21T01:53:16;22.35;;;11.63;;
64816;SDS011;69411;45.656;11.740;2024-02-21T01:55:55;19.98;;;11.05;;
64816;SDS011;69411;45.656;11.740;2024-02-21T01:58:21;20.75;;;10.30;;
64816;SDS011;69411;45.656;11.740;2024-02-21T02:00:48;21.08;;;9.80;;
64816;SDS011;69411;45.656;11.740;2024-02-21T02:03:16;19.55;;;9.93;;
64816;SDS011;69411;45.656;11.740;2024-02-21T02:05:45;16.17;;;8.60;;
64816;SDS011;69411;45.656;11.740;2024-02-21T02:08:15;16.95;;;8.85;;
64816;SDS011;69411;45.656;11.740;2024-02-21T02:10:42;16.52;;;8.52;;
64816;SDS011;69411;45.656;11.740;2024-02-21T02:13:08;16.60;;;9.20;;
64816;SDS011;69411;45.656;11.740;2024-02-21T02:15:44;18.45;;;8.75;;
64816;SDS011;69411;45.656;11.740;2024-02-21T02:18:12;15.65;;;8.48;;
64816;SDS011;69411;45.656;11.740;2024-02-21T02:20:38;17.02;;;8.38;;
64816;SDS011;69411;45.656;11.740;2024-02-21T02:23:11;15.02;;;8.18;;
64816;SDS011;69411;45.656;11.740;2024-02-21T02:25:59;16.25;;;8.15;;
64816;SDS011;69411;45.656;11.740;2024-02-21T02:28:28;17.17;;;8.25;;
64816;SDS011;69411;45.656;11.740;2024-02-21T02:30:54;16.13;;;8.20;;
64816;SDS011;69411;45.656;11.740;2024-02-21T02:33:20;16.83;;;8.30;;
64816;SDS011;69411;45.656;11.740;2024-02-21T02:35:46;14.88;;;7.80;;
64816;SDS011;69411;45.656;11.740;2024-02-21T02:38:12;14.63;;;7.13;;
64816;SDS011;69411;45.656;11.740;2024-02-21T02:40:38;15.85;;;7.63;;
64816;SDS011;69411;45.656;11.740;2024-02-21T02:43:05;14.88;;;7.95;;
64816;SDS011;69411;45.656;11.740;2024-02-21T02:45:32;13.32;;;7.20;;
64816;SDS011;69411;45.656;11.740;2024-02-21T02:47:58;13.80;;;7.03;;
64816;SDS011;69411;45.656;11.740;2024-02-21T02:50:25;13.35;;;6.75;;
64816;SDS011;69411;45.656;11.740;2024-02-21T02:52:52;15.15;;;7.85;;
64816;SDS011;69411;45.656;11.740;2024-02-21T02:55:19;13.05;;;7.50;;
64816;SDS011;69411;45.656;11.740;2024-02-21T02:57:45;14.10;;;7.45;;
64816;SDS011;69411;45.656;11.740;2024-02-21T03:00:12;14.30;;;7.43;;
64816;SDS011;69411;45.656;11.740;2024-02-21T03:02:40;15.00;;;7.47;;
64816;SDS011;69411;45.656;11.740;2024-02-21T03:05:17;15.60;;;7.70;;
64816;SDS011;69411;45.656;11.740;2024-02-21T03:07:44;13.25;;;7.18;;
64816;SDS011;69411;45.656;11.740;2024-02-21T03:10:10;14.07;;;7.63;;
64816;SDS011;69411;45.656;11.740;2024-02-21T03:12:37;13.23;;;6.28;;
64816;SDS011;69411;45.656;11.740;2024-02-21T03:15:03;10.73;;;5.85;;
64816;SDS011;69411;45.656;11.740;2024-02-21T03:17:30;10.05;;;4.85;;
64816;SDS011;69411;45.656;11.740;2024-02-21T03:19:57;8.85;;;5.15;;
64816;SDS011;69411;45.656;11.740;2024-02-21T03:22:24;8.93;;;4.60;;
64816;SDS011;69411;45.656;11.740;2024-02-21T03:24:50;9.65;;;4.68;;
64816;SDS011;69411;45.656;11.740;2024-02-21T03:27:16;14.10;;;7.25;;
64816;SDS011;69411;45.656;11.740;2024-02-21T03:29:42;14.52;;;9.18;;
64816;SDS011;69411;45.656;11.740;2024-02-21T03:32:08;17.48;;;8.95;;
64816;SDS011;69411;45.656;11.740;2024-02-21T03:34:35;14.35;;;7.20;;
64816;SDS011;69411;45.656;11.740;2024-02-21T03:37:00;13.05;;;6.32;;
64816;SDS011;69411;45.656;11.740;2024-02-21T03:39:27;12.90;;;6.65;;
64816;SDS011;69411;45.656;11.740;2024-02-21T03:41:56;12.73;;;6.22;;
64816;SDS011;69411;45.656;11.740;2024-02-21T03:44:23;12.02;;;6.60;;
64816;SDS011;69411;45.656;11.740;2024-02-21T03:46:49;12.75;;;6.70;;
64816;SDS011;69411;45.656;11.740;2024-02-21T03:49:15;15.90;;;8.00;;
64816;SDS011;69411;45.656;11.740;2024-02-21T03:51:41;17.58;;;8.52;;
64816;SDS011;69411;45.656;11.740;2024-02-21T03:54:07;17.52;;;8.43;;
64816;SDS011;69411;45.656;11.740;2024-02-21T03:56:36;16.60;;;8.00;;
64816;SDS011;69411;45.656;11.740;2024-02-21T03:59:03;17.42;;;8.25;;
64816;SDS011;69411;45.656;11.740;2024-02-21T04:01:29;16.85;;;8.38;;
64816;SDS011;69411;45.656;11.740;2024-02-21T04:03:55;14.68;;;7.70;;
64816;SDS011;69411;45.656;11.740;2024-02-21T04:06:21;14.90;;;7.70;;
64816;SDS011;69411;45.656;11.740;2024-02-21T04:08:47;14.68;;;7.38;;
64816;SDS011;69411;45.656;11.740;2024-02-21T04:11:12;13.88;;;7.15;;
64816;SDS011;69411;45.656;11.740;2024-02-21T04:13:39;12.75;;;7.05;;
64816;SDS011;69411;45.656;11.740;2024-02-21T04:16:05;13.95;;;7.22;;
64816;SDS011;69411;45.656;11.740;2024-02-21T04:18:31;12.43;;;6.30;;
64816;SDS011;69411;45.656;11.740;2024-02-21T04:20:57;14.15;;;6.95;;
64816;SDS011;69411;45.656;11.740;2024-02-21T04:23:23;16.13;;;7.90;;
64816;SDS011;69411;45.656;11.740;2024-02-21T04:25:49;14.75;;;7.43;;
64816;SDS011;69411;45.656;11.740;2024-02-21T04:28:15;14.40;;;7.15;;
64816;SDS011;69411;45.656;11.740;2024-02-21T04:30:41;13.25;;;6.70;;
64816;SDS011;69411;45.656;11.740;2024-02-21T04:33:07;13.00;;;6.95;;
64816;SDS011;69411;45.656;11.740;2024-02-21T04:35:33;13.55;;;6.47;;
64816;SDS011;69411;45.656;11.740;2024-02-21T04:38:01;13.60;;;6.85;;
64816;SDS011;69411;45.656;11.740;2024-02-21T04:40:27;13.73;;;7.20;;
64816;SDS011;69411;45.656;11.740;2024-02-21T04:42:53;15.13;;;7.07;;
64816;SDS011;69411;45.656;11.740;2024-02-21T04:45:19;16.80;;;7.35;;
64816;SDS011;69411;45.656;11.740;2024-02-21T04:47:45;14.88;;;7.32;;
64816;SDS011;69411;45.656;11.740;2024-02-21T04:50:11;14.27;;;6.63;;
64816;SDS011;69411;45.656;11.740;2024-02-21T04:52:38;15.43;;;6.70;;
64816;SDS011;69411;45.656;11.740;2024-02-21T04:55:04;12.32;;;6.30;;
64816;SDS011;69411;45.656;11.740;2024-02-21T04:57:30;14.65;;;6.75;;
64816;SDS011;69411;45.656;11.740;2024-02-21T04:59:56;11.88;;;6.88;;
64816;SDS011;69411;45.656;11.740;2024-02-21T05:02:21;14.45;;;7.38;;
64816;SDS011;69411;45.656;11.740;2024-02-21T05:04:49;15.15;;;7.15;;
64816;SDS011;69411;45.656;11.740;2024-02-21T05:07:15;13.77;;;6.85;;
64816;SDS011;69411;45.656;11.740;2024-02-21T05:09:42;15.95;;;6.90;;
64816;SDS011;69411;45.656;11.740;2024-02-21T05:12:08;13.57;;;6.95;;
64816;SDS011;69411;45.656;11.740;2024-02-21T05:14:34;13.38;;;6.55;;
64816;SDS011;69411;45.656;11.740;2024-02-21T05:17:00;12.57;;;6.88;;
64816;SDS011;69411;45.656;11.740;2024-02-21T05:19:26;11.98;;;6.13;;
64816;SDS011;69411;45.656;11.740;2024-02-21T05:21:52;15.63;;;7.47;;
64816;SDS011;69411;45.656;11.740;2024-02-21T05:24:18;15.95;;;7.40;;
64816;SDS011;69411;45.656;11.740;2024-02-21T05:26:44;16.88;;;7.40;;
64816;SDS011;69411;45.656;11.740;2024-02-21T05:29:10;17.05;;;7.57;;
64816;SDS011;69411;45.656;11.740;2024-02-21T05:31:54;17.20;;;8.60;;
64816;SDS011;69411;45.656;11.740;2024-02-21T05:34:23;13.98;;;7.88;;
64816;SDS011;69411;45.656;11.740;2024-02-21T05:36:51;13.70;;;7.00;;
64816;SDS011;69411;45.656;11.740;2024-02-21T05:39:17;14.57;;;7.68;;
64816;SDS011;69411;45.656;11.740;2024-02-21T05:41:43;14.52;;;7.00;;
64816;SDS011;69411;45.656;11.740;2024-02-21T05:44:10;15.85;;;7.80;;
64816;SDS011;69411;45.656;11.740;2024-02-21T05:46:36;22.15;;;12.63;;
64816;SDS011;69411;45.656;11.740;2024-02-21T05:49:02;22.25;;;10.85;;
64816;SDS011;69411;45.656;11.740;2024-02-21T05:51:31;31.10;;;14.80;;
64816;SDS011;69411;45.656;11.740;2024-02-21T05:54:24;43.35;;;18.42;;
64816;SDS011;69411;45.656;11.740;2024-02-21T05:56:50;45.92;;;22.15;;
64816;SDS011;69411;45.656;11.740;2024-02-21T05:59:17;47.92;;;23.30;;
64816;SDS011;69411;45.656;11.740;2024-02-21T06:01:44;38.13;;;21.02;;
64816;SDS011;69411;45.656;11.740;2024-02-21T06:04:10;31.70;;;18.17;;
64816;SDS011;69411;45.656;11.740;2024-02-21T06:06:36;35.53;;;21.00;;
64816;SDS011;69411;45.656;11.740;2024-02-21T06:09:02;32.92;;;19.95;;
64816;SDS011;69411;45.656;11.740;2024-02-21T06:11:29;29.63;;;19.15;;
64816;SDS011;69411;45.656;11.740;2024-02-21T06:13:57;26.30;;;16.40;;
64816;SDS011;69411;45.656;11.740;2024-02-21T06:16:25;24.27;;;13.60;;
64816;SDS011;69411;45.656;11.740;2024-02-21T06:18:51;19.58;;;10.73;;
64816;SDS011;69411;45.656;11.740;2024-02-21T06:21:17;19.73;;;10.27;;
64816;SDS011;69411;45.656;11.740;2024-02-21T06:23:43;14.15;;;8.13;;
64816;SDS011;69411;45.656;11.740;2024-02-21T06:26:09;12.40;;;7.10;;
64816;SDS011;69411;45.656;11.740;2024-02-21T06:28:35;13.02;;;6.85;;
64816;SDS011;69411;45.656;11.740;2024-02-21T06:31:01;11.82;;;6.00;;
64816;SDS011;69411;45.656;11.740;2024-02-21T06:33:26;12.05;;;6.13;;
64816;SDS011;69411;45.656;11.740;2024-02-21T06:35:52;10.90;;;6.18;;
64816;SDS011;69411;45.656;11.740;2024-02-21T06:38:19;11.27;;;5.57;;
64816;SDS011;69411;45.656;11.740;2024-02-21T06:40:45;9.23;;;4.95;;
64816;SDS011;69411;45.656;11.740;2024-02-21T06:43:16;11.93;;;5.07;;
64816;SDS011;69411;45.656;11.740;2024-02-21T06:45:43;8.88;;;4.80;;
64816;SDS011;69411;45.656;11.740;2024-02-21T06:48:13;10.77;;;4.93;;
64816;SDS011;69411;45.656;11.740;2024-02-21T06:50:39;8.45;;;4.55;;
64816;SDS011;69411;45.656;11.740;2024-02-21T06:53:05;11.10;;;4.72;;
64816;SDS011;69411;45.656;11.740;2024-02-21T06:55:31;11.80;;;4.60;;
64816;SDS011;69411;45.656;11.740;2024-02-21T06:57:57;9.18;;;4.60;;
64816;SDS011;69411;45.656;11.740;2024-02-21T07:00:23;9.35;;;4.78;;
64816;SDS011;69411;45.656;11.740;2024-02-21T07:02:50;7.18;;;3.80;;
64816;SDS011;69411;45.656;11.740;2024-02-21T07:05:16;8.65;;;4.20;;
64816;SDS011;69411;45.656;11.740;2024-02-21T07:07:42;7.82;;;3.92;;
64816;SDS011;69411;45.656;11.740;2024-02-21T07:10:08;8.30;;;4.32;;
64816;SDS011;69411;45.656;11.740;2024-02-21T07:12:36;20.80;;;13.07;;
64816;SDS011;69411;45.656;11.740;2024-02-21T07:15:07;14.80;;;9.77;;
64816;SDS011;69411;45.656;11.740;2024-02-21T07:17:33;12.98;;;6.68;;
64816;SDS011;69411;45.656;11.740;2024-02-21T07:19:58;9.65;;;5.85;;
64816;SDS011;69411;45.656;11.740;2024-02-21T07:22:24;11.30;;;6.80;;
64816;SDS011;69411;45.656;11.740;2024-02-21T07:24:50;12.10;;;7.70;;
64816;SDS011;69411;45.656;11.740;2024-02-21T07:27:16;12.02;;;7.18;;
64816;SDS011;69411;45.656;11.740;2024-02-21T07:29:42;12.65;;;6.88;;
64816;SDS011;69411;45.656;11.740;2024-02-21T07:32:12;15.45;;;8.90;;
64816;SDS011;69411;45.656;11.740;2024-02-21T07:34:38;14.38;;;7.63;;
64816;SDS011;69411;45.656;11.740;2024-02-21T07:37:05;12.70;;;7.28;;
64816;SDS011;69411;45.656;11.740;2024-02-21T07:39:30;8.68;;;5.45;;
64816;SDS011;69411;45.656;11.740;2024-02-21T07:41:56;9.55;;;5.63;;
64816;SDS011;69411;45.656;11.740;2024-02-21T07:44:34;9.65;;;4.53;;
64816;SDS011;69411;45.656;11.740;2024-02-21T07:47:20;8.38;;;4.30;;
64816;SDS011;69411;45.656;11.740;2024-02-21T07:49:45;6.90;;;4.15;;
64816;SDS011;69411;45.656;11.740;2024-02-21T07:52:11;7.05;;;4.35;;
64816;SDS011;69411;45.656;11.740;2024-02-21T07:54:37;22.02;;;10.18;;
64816;SDS011;69411;45.656;11.740;2024-02-21T07:57:03;12.23;;;6.53;;
64816;SDS011;69411;45.656;11.740;2024-02-21T07:59:29;14.13;;;9.18;;
64816;SDS011;69411;45.656;11.740;2024-02-21T08:01:56;14.82;;;8.43;;
64816;SDS011;69411;45.656;11.740;2024-02-21T08:04:23;12.35;;;6.93;;
64816;SDS011;69411;45.656;11.740;2024-02-21T08:06:52;13.23;;;8.43;;
64816;SDS011;69411;45.656;11.740;2024-02-21T08:09:21;13.15;;;8.77;;
64816;SDS011;69411;45.656;11.740;2024-02-21T08:11:48;14.05;;;8.60;;
64816;SDS011;69411;45.656;11.740;2024-02-21T08:14:15;11.38;;;7.00;;
64816;SDS011;69411;45.656;11.740;2024-02-21T08:16:42;16.40;;;7.80;;
64816;SDS011;69411;45.656;11.740;2024-02-21T08:19:09;15.57;;;7.65;;
64816;SDS011;69411;45.656;11.740;2024-02-21T08:21:38;12.50;;;7.70;;
64816;SDS011;69411;45.656;11.740;2024-02-21T08:24:04;13.27;;;8.05;;
64816;SDS011;69411;45.656;11.740;2024-02-21T08:26:30;13.38;;;8.10;;
64816;SDS011;69411;45.656;11.740;2024-02-21T08:28:56;12.60;;;7.80;;
64816;SDS011;69411;45.656;11.740;2024-02-21T08:31:26;14.68;;;7.32;;
64816;SDS011;69411;45.656;11.740;2024-02-21T08:33:59;13.02;;;7.40;;
64816;SDS011;69411;45.656;11.740;2024-02-21T08:36:32;11.13;;;7.18;;
64816;SDS011;69411;45.656;11.740;2024-02-21T08:38:59;10.57;;;6.07;;
64816;SDS011;69411;45.656;11.740;2024-02-21T08:41:25;10.85;;;5.97;;
64816;SDS011;69411;45.656;11.740;2024-02-21T08:43:52;10.38;;;5.50;;
64816;SDS011;69411;45.656;11.740;2024-02-21T08:46:22;11.38;;;6.25;;
64816;SDS011;69411;45.656;11.740;2024-02-21T08:48:50;10.40;;;6.10;;
64816;SDS011;69411;45.656;11.740;2024-02-21T08:51:17;11.75;;;5.65;;
64816;SDS011;69411;45.656;11.740;2024-02-21T08:53:43;8.52;;;5.15;;
64816;SDS011;69411;45.656;11.740;2024-02-21T08:56:11;9.35;;;5.00;;
64816;SDS011;69411;45.656;11.740;2024-02-21T08:58:38;11.52;;;5.20;;
64816;SDS011;69411;45.656;11.740;2024-02-21T09:01:05;9.02;;;5.15;;
64816;SDS011;69411;45.656;11.740;2024-02-21T09:03:38;10.15;;;6.00;;
64816;SDS011;69411;45.656;11.740;2024-02-21T09:06:05;9.73;;;5.40;;
64816;SDS011;69411;45.656;11.740;2024-02-21T09:08:33;10.55;;;5.82;;
64816;SDS011;69411;45.656;11.740;2024-02-21T09:11:02;9.52;;;5.00;;
64816;SDS011;69411;45.656;11.740;2024-02-21T09:13:28;11.75;;;5.97;;
64816;SDS011;69411;45.656;11.740;2024-02-21T09:15:55;10.35;;;5.50;;
64816;SDS011;69411;45.656;11.740;2024-02-21T09:18:21;13.68;;;7.13;;
64816;SDS011;69411;45.656;11.740;2024-02-21T09:20:47;11.77;;;6.00;;
64816;SDS011;69411;45.656;11.740;2024-02-21T09:23:13;12.10;;;6.18;;
64816;SDS011;69411;45.656;11.740;2024-02-21T09:25:39;11.70;;;6.50;;
64816;SDS011;69411;45.656;11.740;2024-02-21T09:28:05;11.00;;;6.47;;
64816;SDS011;69411;45.656;11.740;2024-02-21T09:30:31;11.75;;;6.10;;
64816;SDS011;69411;45.656;11.740;2024-02-21T09:32:58;11.43;;;6.63;;
64816;SDS011;69411;45.656;11.740;2024-02-21T09:35:26;11.35;;;6.57;;
64816;SDS011;69411;45.656;11.740;2024-02-21T09:37:53;13.48;;;7.07;;
64816;SDS011;69411;45.656;11.740;2024-02-21T09:40:19;12.50;;;6.78;;
64816;SDS011;69411;45.656;11.740;2024-02-21T09:42:46;13.80;;;6.97;;
64816;SDS011;69411;45.656;11.740;2024-02-21T09:45:20;11.98;;;6.82;;
64816;SDS011;69411;45.656;11.740;2024-02-21T09:50:16;13.13;;;6.43;;
64816;SDS011;69411;45.656;11.740;2024-02-21T09:52:43;11.52;;;6.25;;
64816;SDS011;69411;45.656;11.740;2024-02-21T09:55:10;12.23;;;6.80;;
64816;SDS011;69411;45.656;11.740;2024-02-21T09:57:38;11.82;;;6.28;;
64816;SDS011;69411;45.656;11.740;2024-02-21T10:00:05;10.13;;;5.55;;
64816;SDS011;69411;45.656;11.740;2024-02-21T10:02:34;10.43;;;5.70;;
64816;SDS011;69411;45.656;11.740;2024-02-21T10:05:00;11.10;;;5.80;;
64816;SDS011;69411;45.656;11.740;2024-02-21T10:07:30;9.60;;;5.25;;
64816;SDS011;69411;45.656;11.740;2024-02-21T10:10:03;8.10;;;4.75;;
64816;SDS011;69411;45.656;11.740;2024-02-21T10:12:29;10.05;;;4.30;;
64816;SDS011;69411;45.656;11.740;2024-02-21T10:15:05;8.93;;;5.00;;
64816;SDS011;69411;45.656;11.740;2024-02-21T10:17:32;8.40;;;5.00;;
64816;SDS011;69411;45.656;11.740;2024-02-21T10:20:07;10.25;;;5.97;;
64816;SDS011;69411;45.656;11.740;2024-02-21T10:22:34;9.60;;;5.10;;
64816;SDS011;69411;45.656;11.740;2024-02-21T10:25:11;9.55;;;5.07;;
64816;SDS011;69411;45.656;11.740;2024-02-21T10:27:38;10.18;;;5.60;;
64816;SDS011;69411;45.656;11.740;2024-02-21T10:30:07;9.95;;;5.70;;
64816;SDS011;69411;45.656;11.740;2024-02-21T10:32:51;10.63;;;6.05;;
64816;SDS011;69411;45.656;11.740;2024-02-21T10:35:31;9.95;;;5.15;;
64816;SDS011;69411;45.656;11.740;2024-02-21T10:37:58;10.45;;;5.85;;
64816;SDS011;69411;45.656;11.740;2024-02-21T10:40:25;9.20;;;5.78;;
64816;SDS011;69411;45.656;11.740;2024-02-21T10:42:57;9.45;;;5.40;;
64816;SDS011;69411;45.656;11.740;2024-02-21T10:45:31;8.93;;;5.72;;
64816;SDS011;69411;45.656;11.740;2024-02-21T10:56:04;9.60;;;6.00;;
64816;SDS011;69411;45.656;11.740;2024-02-21T10:58:51;10.27;;;5.93;;
64816;SDS011;69411;45.656;11.740;2024-02-21T11:01:18;11.45;;;5.90;;
64816;SDS011;69411;45.656;11.740;2024-02-21T11:03:45;10.77;;;5.40;;
64816;SDS011;69411;45.656;11.740;2024-02-21T11:06:13;10.68;;;6.05;;
64816;SDS011;69411;45.656;11.740;2024-02-21T11:08:40;10.73;;;6.28;;
64816;SDS011;69411;45.656;11.740;2024-02-21T11:11:06;11.15;;;6.35;;
64816;SDS011;69411;45.656;11.740;2024-02-21T11:13:35;12.30;;;6.85;;
64816;SDS011;69411;45.656;11.740;2024-02-21T11:16:06;13.82;;;8.07;;
64816;SDS011;69411;45.656;11.740;2024-02-21T11:21:04;12.93;;;6.90;;
64816;SDS011;69411;45.656;11.740;2024-02-21T11:23:31;12.52;;;7.60;;
64816;SDS011;69411;45.656;11.740;2024-02-21T11:26:03;15.55;;;7.97;;
64816;SDS011;69411;45.656;11.740;2024-02-21T11:28:33;13.57;;;7.28;;
64816;SDS011;69411;45.656;11.740;2024-02-21T11:31:08;12.77;;;8.23;;
64816;SDS011;69411;45.656;11.740;2024-02-21T11:33:39;12.32;;;7.43;;
64816;SDS011;69411;45.656;11.740;2024-02-21T11:36:07;16.15;;;8.98;;
64816;SDS011;69411;45.656;11.740;2024-02-21T11:38:34;15.00;;;8.70;;
64816;SDS011;69411;45.656;11.740;2024-02-21T11:41:00;15.05;;;8.60;;
64816;SDS011;69411;45.656;11.740;2024-02-21T11:43:27;15.07;;;9.27;;
64816;SDS011;69411;45.656;11.740;2024-02-21T11:45:59;16.77;;;9.38;;
64816;SDS011;69411;45.656;11.740;2024-02-21T11:48:29;14.35;;;8.23;;
64816;SDS011;69411;45.656;11.740;2024-02-21T11:50:59;14.20;;;8.60;;
64816;SDS011;69411;45.656;11.740;2024-02-21T11:53:28;13.40;;;7.90;;
64816;SDS011;69411;45.656;11.740;2024-02-21T11:55:56;16.52;;;8.77;;
64816;SDS011;69411;45.656;11.740;2024-02-21T11:58:22;14.00;;;8.82;;
64816;SDS011;69411;45.656;11.740;2024-02-21T12:00:48;19.33;;;8.98;;
64816;SDS011;69411;45.656;11.740;2024-02-21T12:03:14;15.00;;;9.90;;
64816;SDS011;69411;45.656;11.740;2024-02-21T12:05:41;15.38;;;9.52;;
64816;SDS011;69411;45.656;11.740;2024-02-21T12:08:07;14.45;;;9.45;;
64816;SDS011;69411;45.656;11.740;2024-02-21T12:10:35;16.83;;;10.75;;
64816;SDS011;69411;45.656;11.740;2024-02-21T12:13:07;17.25;;;10.38;;
64816;SDS011;69411;45.656;11.740;2024-02-21T12:15:34;17.27;;;9.77;;
64816;SDS011;69411;45.656;11.740;2024-02-21T12:18:04;23.77;;;13.65;;
64816;SDS011;69411;45.656;11.740;2024-02-21T12:20:31;25.55;;;14.52;;
64816;SDS011;69411;45.656;11.740;2024-02-21T12:23:01;26.75;;;15.85;;
64816;SDS011;69411;45.656;11.740;2024-02-21T12:25:28;32.20;;;19.00;;
64816;SDS011;69411;45.656;11.740;2024-02-21T12:27:54;31.33;;;17.25;;
64816;SDS011;69411;45.656;11.740;2024-02-21T12:30:21;35.60;;;19.55;;
64816;SDS011;69411;45.656;11.740;2024-02-21T12:32:51;35.20;;;19.88;;
64816;SDS011;69411;45.656;11.740;2024-02-21T12:35:18;33.13;;;18.27;;
64816;SDS011;69411;45.656;11.740;2024-02-21T12:37:44;33.03;;;19.98;;
64816;SDS011;69411;45.656;11.740;2024-02-21T12:40:10;29.73;;;17.88;;
64816;SDS011;69411;45.656;11.740;2024-02-21T12:42:40;37.05;;;21.55;;
64816;SDS011;69411;45.656;11.740;2024-02-21T12:45:07;37.85;;;20.90;;
64816;SDS011;69411;45.656;11.740;2024-02-21T12:47:34;37.90;;;21.40;;
64816;SDS011;69411;45.656;11.740;2024-02-21T12:50:02;29.30;;;17.35;;
64816;SDS011;69411;45.656;11.740;2024-02-21T12:52:32;31.52;;;17.63;;
64816;SDS011;69411;45.656;11.740;2024-02-21T12:54:58;29.75;;;16.70;;
64816;SDS011;69411;45.656;11.740;2024-02-21T12:57:24;32.38;;;18.90;;
64816;SDS011;69411;45.656;11.740;2024-02-21T12:59:51;26.48;;;15.43;;
64816;SDS011;69411;45.656;11.740;2024-02-21T13:02:20;26.73;;;14.95;;
64816;SDS011;69411;45.656;11.740;2024-02-21T13:04:47;25.45;;;14.95;;
64816;SDS011;69411;45.656;11.740;2024-02-21T13:07:13;28.10;;;14.73;;
64816;SDS011;69411;45.656;11.740;2024-02-21T13:09:39;30.42;;;17.00;;
64816;SDS011;69411;45.656;11.740;2024-02-21T13:12:05;24.75;;;15.60;;
64816;SDS011;69411;45.656;11.740;2024-02-21T13:14:32;25.15;;;14.70;;
64816;SDS011;69411;45.656;11.740;2024-02-21T13:17:00;23.50;;;14.48;;
64816;SDS011;69411;45.656;11.740;2024-02-21T13:19:26;23.77;;;14.10;;
64816;SDS011;69411;45.656;11.740;2024-02-21T13:21:52;22.90;;;13.52;;
64816;SDS011;69411;45.656;11.740;2024-02-21T13:24:18;24.50;;;15.13;;
64816;SDS011;69411;45.656;11.740;2024-02-21T13:26:44;26.60;;;15.23;;
64816;SDS011;69411;45.656;11.740;2024-02-21T13:29:10;23.95;;;15.00;;
64816;SDS011;69411;45.656;11.740;2024-02-21T13:31:37;21.67;;;13.23;;
64816;SDS011;69411;45.656;11.740;2024-02-21T13:34:03;24.40;;;14.77;;
64816;SDS011;69411;45.656;11.740;2024-02-21T13:36:29;24.15;;;14.30;;
64816;SDS011;69411;45.656;11.740;2024-02-21T13:38:55;24.92;;;14.70;;
64816;SDS011;69411;45.656;11.740;2024-02-21T13:41:21;24.50;;;14.70;;
64816;SDS011;69411;45.656;11.740;2024-02-21T13:43:48;25.33;;;15.13;;
64816;SDS011;69411;45.656;11.740;2024-02-21T13:46:14;25.90;;;14.98;;
64816;SDS011;69411;45.656;11.740;2024-02-21T13:48:40;24.25;;;13.88;;
64816;SDS011;69411;45.656;11.740;2024-02-21T13:51:06;27.08;;;15.25;;
64816;SDS011;69411;45.656;11.740;2024-02-21T13:53:33;22.98;;;12.90;;
64816;SDS011;69411;45.656;11.740;2024-02-21T13:55:59;21.98;;;12.60;;
64816;SDS011;69411;45.656;11.740;2024-02-21T13:58:25;20.30;;;12.02;;
64816;SDS011;69411;45.656;11.740;2024-02-21T14:00:52;24.02;;;14.88;;
64816;SDS011;69411;45.656;11.740;2024-02-21T14:03:18;25.83;;;13.77;;
64816;SDS011;69411;45.656;11.740;2024-02-21T14:05:45;23.50;;;13.30;;
64816;SDS011;69411;45.656;11.740;2024-02-21T14:08:13;21.95;;;12.65;;
64816;SDS011;69411;45.656;11.740;2024-02-21T14:10:44;21.45;;;12.57;;
64816;SDS011;69411;45.656;11.740;2024-02-21T14:13:12;23.80;;;14.47;;
64816;SDS011;69411;45.656;11.740;2024-02-21T14:15:39;23.20;;;13.32;;
64816;SDS011;69411;45.656;11.740;2024-02-21T14:18:09;22.10;;;13.25;;
64816;SDS011;69411;45.656;11.740;2024-02-21T14:20:35;23.65;;;13.48;;
64816;SDS011;69411;45.656;11.740;2024-02-21T14:23:01;20.58;;;12.18;;
64816;SDS011;69411;45.656;11.740;2024-02-21T14:25:27;26.30;;;15.55;;
64816;SDS011;69411;45.656;11.740;2024-02-21T14:27:53;26.77;;;14.65;;
64816;SDS011;69411;45.656;11.740;2024-02-21T14:30:23;23.55;;;14.10;;
64816;SDS011;69411;45.656;11.740;2024-02-21T14:32:50;26.20;;;15.05;;